createdAt,value
2022-08-17T00:01:31.464Z,100352.22
2022-08-17T00:04:19.406Z,100358.66
2022-08-17T00:06:49.040Z,100357.09
2022-08-17T00:09:18.943Z,100359.81
2022-08-17T00:12:40.764Z,100357.16
2022-08-17T00:14:34.902Z,100364.53
2022-08-17T00:17:03.731Z,100364.72
2022-08-17T00:19:32.488Z,100360.38
2022-08-17T00:22:31.288Z,100364.84
2022-08-17T00:24:47.580Z,100364.97
2022-08-17T00:27:14.216Z,100364.25
2022-08-17T00:29:41.149Z,100370.69
2022-08-17T00:33:12.433Z,100373.53
2022-08-17T00:34:55.050Z,100379.72
2022-08-17T00:37:21.695Z,100386.91
2022-08-17T00:39:48.370Z,100378.13
2022-08-17T00:42:16.643Z,100377.97
2022-08-17T00:44:43.234Z,100375.53
2022-08-17T00:47:09.941Z,100374.81
2022-08-17T00:49:36.557Z,100375.72
2022-08-17T00:52:11.654Z,100377.94
2022-08-17T00:54:42.024Z,100375.59
2022-08-17T00:57:11.982Z,100379.19
2022-08-17T00:59:41.585Z,100369.53
2022-08-17T01:02:10.030Z,100369.59
2022-08-17T01:04:36.842Z,100368.75
2022-08-17T01:07:04.007Z,100370.53
2022-08-17T01:09:31.980Z,100372.06
2022-08-17T01:11:58.632Z,100365.22
2022-08-17T01:14:26.278Z,100358.38
2022-08-17T01:16:54.832Z,100369.19
2022-08-17T01:19:28.748Z,100363.94
2022-08-17T01:22:03.955Z,100369.41
2022-08-17T01:24:31.278Z,100366.88
2022-08-17T01:27:00.620Z,100379.44
2022-08-17T01:29:30.784Z,100374.19
2022-08-17T01:32:04.217Z,100379.63
2022-08-17T01:34:42.745Z,100381.50
2022-08-17T01:37:12.094Z,100383.41
2022-08-17T01:39:47.529Z,100381.69
2022-08-17T01:42:24.981Z,100381.81
2022-08-17T01:44:56.222Z,100379.22
2022-08-17T01:47:23.633Z,100384.69
2022-08-17T01:49:50.861Z,100386.63
2022-08-17T01:52:17.822Z,100372.50
2022-08-17T01:54:47.359Z,100380.59
2022-08-17T01:57:14.600Z,100387.84
2022-08-17T01:59:41.208Z,100378.19
2022-08-17T02:02:08.734Z,100382.75
2022-08-17T02:04:35.358Z,100381.81
2022-08-17T02:07:02.002Z,100381.94
2022-08-17T02:09:30.124Z,100386.47
2022-08-17T02:11:59.439Z,100387.41
2022-08-17T02:14:26.619Z,100383.88
2022-08-17T02:16:53.836Z,100384.81
2022-08-17T02:19:20.498Z,100387.41
2022-08-17T02:21:49.594Z,100382.06
2022-08-17T02:24:59.963Z,100376.22
2022-08-17T02:27:13.528Z,100383.75
2022-08-17T02:29:40.140Z,100380.50
2022-08-17T02:32:07.013Z,100381.44
2022-08-17T02:34:33.898Z,100391.28
2022-08-17T02:37:00.520Z,100394.88
2022-08-17T02:39:27.234Z,100391.44
2022-08-17T02:42:01.017Z,100384.44
2022-08-17T02:44:39.826Z,100389.03
2022-08-17T02:47:08.374Z,100384.72
2022-08-17T02:49:37.261Z,100388.31
2022-08-17T02:52:06.687Z,100381.19
2022-08-17T02:54:40.415Z,100385.66
2022-08-17T02:57:08.927Z,100385.69
2022-08-17T02:59:35.589Z,100385.00
2022-08-17T03:02:10.430Z,100387.78
2022-08-17T03:04:37.960Z,100384.38
2022-08-17T03:07:05.445Z,100389.00
2022-08-17T03:09:32.270Z,100388.13
2022-08-17T03:12:12.948Z,100391.66
2022-08-17T03:14:41.660Z,100378.47
2022-08-17T03:17:17.077Z,100380.34
2022-08-17T03:19:44.571Z,100388.47
2022-08-17T03:22:36.445Z,100391.19
2022-08-17T03:24:59.705Z,100384.00
2022-08-17T03:27:26.376Z,100383.06
2022-08-17T03:29:53.355Z,100383.06
2022-08-17T03:32:20.902Z,100388.53
2022-08-17T03:34:47.794Z,100390.50
2022-08-17T03:37:14.816Z,100389.78
2022-08-17T03:39:41.628Z,100387.25
2022-08-17T03:42:32.513Z,100380.19
2022-08-17T03:45:00.310Z,100382.00
2022-08-17T03:47:45.677Z,100378.47
2022-08-17T03:50:31.899Z,100376.69
2022-08-17T03:53:17.229Z,100383.78
2022-08-17T03:56:02.485Z,100383.88
2022-08-17T03:58:29.178Z,100384.84
2022-08-17T04:00:56.138Z,100381.31
2022-08-17T04:03:22.763Z,100384.84
2022-08-17T04:05:49.512Z,100388.31
2022-08-17T04:08:16.178Z,100387.47
2022-08-17T04:10:44.989Z,100391.84
2022-08-17T04:13:12.360Z,100385.50
2022-08-17T04:15:42.655Z,100397.81
2022-08-17T04:18:10.921Z,100395.22
2022-08-17T04:20:37.893Z,100402.34
2022-08-17T04:23:11.908Z,100397.94
2022-08-17T04:25:41.616Z,100397.81
2022-08-17T04:28:14.617Z,100403.88
2022-08-17T04:30:45.264Z,100402.88
2022-08-17T04:33:15.143Z,100401.88
2022-08-17T04:35:45.604Z,100403.59
2022-08-17T04:38:19.084Z,100407.09
2022-08-17T04:41:04.290Z,100403.50
2022-08-17T04:43:32.458Z,100406.06
2022-08-17T04:46:01.910Z,100411.13
2022-08-17T04:48:36.551Z,100408.78
2022-08-17T04:51:07.471Z,100408.34
2022-08-17T04:53:34.125Z,100411.56
2022-08-17T04:56:00.744Z,100418.34
2022-08-17T04:58:27.464Z,100416.28
2022-08-17T05:00:54.111Z,100418.72
2022-08-17T05:03:20.745Z,100419.28
2022-08-17T05:05:49.684Z,100427.75
2022-08-17T05:08:18.609Z,100429.03
2022-08-17T05:10:45.814Z,100433.09
2022-08-17T05:13:15.922Z,100430.94
2022-08-17T05:15:45.334Z,100428.47
2022-08-17T05:18:15.988Z,100432.56
2022-08-17T05:20:42.824Z,100441.94
2022-08-17T05:23:12.537Z,100434.69
2022-08-17T05:25:47.636Z,100437.97
2022-08-17T05:28:18.687Z,100447.41
2022-08-17T05:30:50.211Z,100449.00
2022-08-17T05:33:19.352Z,100453.59
2022-08-17T05:35:49.022Z,100455.25
2022-08-17T05:38:18.170Z,100447.72
2022-08-17T05:40:45.059Z,100449.28
2022-08-17T05:43:22.091Z,100450.03
2022-08-17T05:46:04.138Z,100452.53
2022-08-17T05:48:40.281Z,100451.56
2022-08-17T05:51:16.510Z,100452.22
2022-08-17T05:54:15.520Z,100454.44
2022-08-17T05:57:16.135Z,100460.78
2022-08-17T06:00:05.674Z,100456.22
2022-08-17T06:02:54.778Z,100448.13
2022-08-17T06:06:06.472Z,100460.75
2022-08-17T06:08:45.517Z,100455.53
2022-08-17T06:11:32.509Z,100458.44
2022-08-17T06:14:20.825Z,100459.03
2022-08-17T06:16:50.865Z,100463.88
2022-08-17T06:19:31.011Z,100467.84
2022-08-17T06:21:58.568Z,100475.88
2022-08-17T06:24:34.150Z,100472.03
2022-08-17T06:27:37.424Z,100471.63
2022-08-17T06:30:25.662Z,100463.63
2022-08-17T06:32:53.729Z,100470.09
2022-08-17T06:35:42.328Z,100474.84
2022-08-17T06:38:37.119Z,100470.28
2022-08-17T06:41:23.354Z,100473.34
2022-08-17T06:44:43.390Z,100475.47
2022-08-17T06:47:13.525Z,100478.78
2022-08-17T06:49:49.542Z,100480.59
2022-08-17T06:52:45.241Z,100483.53
2022-08-17T06:55:21.437Z,100481.69
2022-08-17T06:57:52.223Z,100477.31
2022-08-17T07:00:25.208Z,100488.28
2022-08-17T07:03:21.284Z,100486.38
2022-08-17T07:05:51.694Z,100484.53
2022-08-17T07:08:38.127Z,100487.13
2022-08-17T07:11:13.081Z,100480.78
2022-08-17T07:13:57.403Z,100478.78
2022-08-17T07:16:41.107Z,100493.22
2022-08-17T07:19:08.222Z,100478.91
2022-08-17T07:21:51.672Z,100480.13
2022-08-17T07:24:59.632Z,100486.63
2022-08-17T07:27:30.980Z,100483.16
2022-08-17T07:30:09.536Z,100486.09
2022-08-17T07:32:41.586Z,100483.75
2022-08-17T07:35:18.459Z,100483.34
2022-08-17T07:37:55.553Z,100479.81
2022-08-17T07:40:28.153Z,100477.03
2022-08-17T07:43:21.912Z,100477.19
2022-08-17T07:46:30.220Z,100485.44
2022-08-17T07:49:16.276Z,100485.97
2022-08-17T07:51:42.790Z,100490.44
2022-08-17T07:54:14.798Z,100477.88
2022-08-17T07:56:46.368Z,100482.94
2022-08-17T07:59:23.535Z,100478.19
2022-08-17T08:01:57.660Z,100481.09
2022-08-17T08:05:00.277Z,100491.69
2022-08-17T08:07:20.912Z,100487.97
2022-08-17T08:10:06.562Z,100489.38
2022-08-17T08:12:39.464Z,100491.00
2022-08-17T08:15:13.081Z,100490.00
2022-08-17T08:17:58.101Z,100486.66
2022-08-17T08:20:51.106Z,100483.09
2022-08-17T08:23:42.285Z,100487.09
2022-08-17T08:26:18.451Z,100480.53
2022-08-17T08:29:12.554Z,100482.91
2022-08-17T08:32:07.738Z,100484.97
2022-08-17T08:34:53.255Z,100479.84
2022-08-17T08:37:53.470Z,100485.66
2022-08-17T08:40:32.227Z,100482.91
2022-08-17T08:43:18.366Z,100485.34
2022-08-17T08:46:16.224Z,100480.97
2022-08-17T08:49:14.597Z,100480.31
2022-08-17T08:51:47.126Z,100471.72
2022-08-17T08:54:28.696Z,100475.56
2022-08-17T08:57:24.473Z,100472.03
2022-08-17T08:59:58.199Z,100471.16
2022-08-17T09:02:35.172Z,100468.34
2022-08-17T09:05:20.620Z,100464.56
2022-08-17T09:08:11.095Z,100467.31
2022-08-17T09:11:05.227Z,100460.81
2022-08-17T09:13:40.983Z,100464.50
2022-08-17T09:17:06.516Z,100460.00
2022-08-17T09:19:45.339Z,100460.50
2022-08-17T09:22:26.231Z,100467.19
2022-08-17T09:25:03.172Z,100460.97
2022-08-17T09:28:06.018Z,100464.97
2022-08-17T09:30:52.463Z,100461.97
2022-08-17T09:33:23.160Z,100464.72
2022-08-17T09:35:54.277Z,100453.97
2022-08-17T09:38:49.814Z,100452.41
2022-08-17T09:41:34.610Z,100448.63
2022-08-17T09:44:13.521Z,100449.53
2022-08-17T09:47:19.536Z,100454.78
2022-08-17T09:49:52.571Z,100459.78
2022-08-17T09:52:22.567Z,100458.56
2022-08-17T09:54:51.431Z,100448.94
2022-08-17T09:57:31.496Z,100449.59
2022-08-17T10:00:16.453Z,100458.56
2022-08-17T10:03:09.677Z,100462.84
2022-08-17T10:05:47.244Z,100459.78
2022-08-17T10:08:35.592Z,100459.13
2022-08-17T10:11:09.902Z,100455.44
2022-08-17T10:13:59.609Z,100461.69
2022-08-17T10:16:51.116Z,100462.84
2022-08-17T10:19:39.926Z,100465.31
2022-08-17T10:22:41.163Z,100464.75
2022-08-17T10:25:48.555Z,100454.22
2022-08-17T10:28:20.992Z,100458.81
2022-08-17T10:31:05.459Z,100461.38
2022-08-17T10:34:01.916Z,100459.19
2022-08-17T10:36:50.007Z,100458.47
2022-08-17T10:39:30.653Z,100459.59
2022-08-17T10:42:03.766Z,100456.38
2022-08-17T10:44:42.396Z,100462.28
2022-08-17T10:47:15.790Z,100455.75
2022-08-17T10:49:54.034Z,100461.94
2022-08-17T10:52:21.748Z,100462.81
2022-08-17T10:55:06.268Z,100460.25
2022-08-17T10:57:39.058Z,100460.22
2022-08-17T11:00:14.803Z,100454.25
2022-08-17T11:02:50.967Z,100458.38
2022-08-17T11:05:46.654Z,100453.97
2022-08-17T11:08:31.370Z,100457.19
2022-08-17T11:11:35.911Z,100454.94
2022-08-17T11:14:25.906Z,100453.06
2022-08-17T11:17:15.181Z,100453.81
2022-08-17T11:19:48.934Z,100461.38
2022-08-17T11:22:33.994Z,100455.28
2022-08-17T11:25:16.638Z,100455.34
2022-08-17T11:27:44.558Z,100453.09
2022-08-17T11:30:33.121Z,100451.16
2022-08-17T11:33:00.464Z,100440.53
2022-08-17T11:35:38.619Z,100433.50
2022-08-17T11:38:28.494Z,100435.72
2022-08-17T11:41:10.485Z,100444.09
2022-08-17T11:43:59.335Z,100441.28
2022-08-17T11:47:07.565Z,100440.94
2022-08-17T11:50:17.346Z,100438.59
2022-08-17T11:52:46.914Z,100445.22
2022-08-17T11:55:40.727Z,100442.97
2022-08-17T11:58:29.305Z,100435.97
2022-08-17T12:00:58.241Z,100435.75
2022-08-17T12:03:31.869Z,100435.97
2022-08-17T12:06:19.944Z,100439.00
2022-08-17T12:08:55.323Z,100426.25
2022-08-17T12:11:55.461Z,100430.03
2022-08-17T12:14:51.340Z,100426.66
2022-08-17T12:17:34.720Z,100428.03
2022-08-17T12:20:21.452Z,100429.03
2022-08-17T12:23:06.955Z,100419.31
2022-08-17T12:25:36.439Z,100433.28
2022-08-17T12:28:06.605Z,100430.38
2022-08-17T12:30:34.927Z,100431.06
2022-08-17T12:33:01.748Z,100436.13
2022-08-17T12:35:35.183Z,100433.91
2022-08-17T12:38:02.935Z,100429.75
2022-08-17T12:40:31.585Z,100422.03
2022-08-17T12:43:04.161Z,100421.81
2022-08-17T12:45:39.661Z,100419.28
2022-08-17T12:48:10.302Z,100418.38
2022-08-17T12:50:39.492Z,100426.84
2022-08-17T12:53:12.370Z,100427.25
2022-08-17T12:55:40.643Z,100430.75
2022-08-17T12:58:14.494Z,100430.13
2022-08-17T13:00:48.577Z,100414.66
2022-08-17T13:03:19.465Z,100417.06
2022-08-17T13:05:52.193Z,100421.47
2022-08-17T13:08:32.036Z,100414.16
2022-08-17T13:10:59.947Z,100422.97
2022-08-17T13:13:29.901Z,100416.56
2022-08-17T13:16:14.326Z,100414.22
2022-08-17T13:19:04.911Z,100407.09
2022-08-17T13:21:33.243Z,100403.00
2022-08-17T13:24:19.644Z,100394.41
2022-08-17T13:26:49.087Z,100392.72
2022-08-17T13:29:21.871Z,100388.31
2022-08-17T13:31:52.872Z,100384.97
2022-08-17T13:34:29.348Z,100383.09
2022-08-17T13:37:17.836Z,100388.88
2022-08-17T13:39:47.471Z,100393.06
2022-08-17T13:42:33.136Z,100384.97
2022-08-17T13:45:00.921Z,100378.34
2022-08-17T13:47:28.094Z,100362.00
2022-08-17T13:49:57.933Z,100380.03
2022-08-17T13:52:39.793Z,100372.69
2022-08-17T13:55:16.557Z,100376.75
2022-08-17T13:57:48.666Z,100372.22
2022-08-17T14:00:30.664Z,100365.31
2022-08-17T14:02:58.326Z,100376.03
2022-08-17T14:05:25.579Z,100374.31
2022-08-17T14:08:02.140Z,100373.09
2022-08-17T14:10:35.804Z,100371.31
2022-08-17T14:13:03.420Z,100365.34
2022-08-17T14:15:55.316Z,100370.69
2022-08-17T14:18:34.257Z,100373.19
2022-08-17T14:21:08.411Z,100384.91
2022-08-17T14:23:35.851Z,100370.50
2022-08-17T14:26:02.648Z,100369.88
2022-08-17T14:28:29.379Z,100361.25
2022-08-17T14:30:56.238Z,100366.69
2022-08-17T14:33:24.729Z,100358.94
2022-08-17T14:35:54.814Z,100362.78
2022-08-17T14:38:21.474Z,100358.72
2022-08-17T14:40:48.354Z,100355.31
2022-08-17T14:43:15.834Z,100354.34
2022-08-17T14:45:43.108Z,100355.38
2022-08-17T14:48:10.111Z,100351.25
2022-08-17T14:50:40.927Z,100355.00
2022-08-17T14:53:10.835Z,100351.97
2022-08-17T14:55:39.906Z,100355.03
2022-08-17T14:58:07.601Z,100356.03
2022-08-17T15:00:34.745Z,100364.53
2022-08-17T15:03:02.437Z,100351.78
2022-08-17T15:05:32.370Z,100354.69
2022-08-17T15:08:01.088Z,100350.09
2022-08-17T15:10:29.321Z,100347.88
2022-08-17T15:12:56.274Z,100351.63
2022-08-17T15:15:23.190Z,100355.69
2022-08-17T15:17:51.630Z,100362.00
2022-08-17T15:20:25.040Z,100360.16
2022-08-17T15:22:55.640Z,100362.34
2022-08-17T15:25:23.723Z,100357.06
2022-08-17T15:27:50.638Z,100362.34
2022-08-17T15:30:17.645Z,100360.28
2022-08-17T15:32:48.199Z,100353.50
2022-08-17T15:35:26.882Z,100359.38
2022-08-17T15:38:04.652Z,100351.88
2022-08-17T15:40:34.963Z,100356.81
2022-08-17T15:43:09.246Z,100349.31
2022-08-17T15:45:35.926Z,100360.19
2022-08-17T15:48:02.626Z,100358.88
2022-08-17T15:50:29.389Z,100353.19
2022-08-17T15:52:58.002Z,100354.72
2022-08-17T15:55:27.182Z,100363.84
2022-08-17T15:57:53.908Z,100356.47
2022-08-17T16:00:23.611Z,100363.03
2022-08-17T16:03:44.866Z,100361.19
2022-08-17T16:05:37.181Z,100367.00
2022-08-17T16:08:04.306Z,100355.81
2022-08-17T16:10:35.639Z,100355.97
2022-08-17T16:13:03.464Z,100353.53
2022-08-17T16:15:31.882Z,100352.94
2022-08-17T16:17:59.430Z,100349.72
2022-08-17T16:20:26.671Z,100346.16
2022-08-17T16:22:54.455Z,100341.75
2022-08-17T16:25:38.794Z,100342.50
2022-08-17T16:28:16.508Z,100348.66
2022-08-17T16:30:43.463Z,100355.88
2022-08-17T16:33:11.730Z,100353.72
2022-08-17T16:35:38.913Z,100347.72
2022-08-17T16:38:07.123Z,100344.59
2022-08-17T16:40:36.153Z,100343.69
2022-08-17T16:43:04.385Z,100347.16
2022-08-17T16:45:36.696Z,100345.09
2022-08-17T16:48:03.967Z,100344.44
2022-08-17T16:50:32.009Z,100345.19
2022-08-17T16:53:17.268Z,100354.34
2022-08-17T16:55:45.174Z,100343.56
2022-08-17T16:58:11.974Z,100350.06
2022-08-17T17:00:39.434Z,100352.66
2022-08-17T17:03:19.355Z,100348.53
2022-08-17T17:06:13.709Z,100350.38
2022-08-17T17:08:49.570Z,100340.84
2022-08-17T17:11:23.329Z,100342.88
2022-08-17T17:13:56.583Z,100344.84
2022-08-17T17:16:46.733Z,100346.44
2022-08-17T17:19:34.463Z,100347.88
2022-08-17T17:22:16.320Z,100342.72
2022-08-17T17:25:29.092Z,100346.88
2022-08-17T17:28:14.621Z,100335.59
2022-08-17T17:30:56.951Z,100343.59
2022-08-17T17:33:40.383Z,100338.47
2022-08-17T17:36:27.814Z,100343.31
2022-08-17T17:39:00.073Z,100337.88
2022-08-17T17:41:34.313Z,100339.03
2022-08-17T17:44:05.806Z,100350.28
2022-08-17T17:46:38.570Z,100349.56
2022-08-17T17:49:06.224Z,100356.16
2022-08-17T17:52:06.807Z,100362.13
2022-08-17T17:55:02.920Z,100361.78
2022-08-17T17:58:07.159Z,100352.22
2022-08-17T18:00:42.623Z,100363.13
2022-08-17T18:03:24.818Z,100363.41
2022-08-17T18:06:02.348Z,100373.06
2022-08-17T18:08:34.700Z,100366.47
2022-08-17T18:11:34.783Z,100356.50
2022-08-17T18:14:22.035Z,100366.06
2022-08-17T18:16:54.798Z,100374.09
2022-08-17T18:19:28.252Z,100383.84
2022-08-17T18:22:06.733Z,100384.78
2022-08-17T18:24:43.576Z,100384.84
2022-08-17T18:27:29.718Z,100379.09
2022-08-17T18:30:03.373Z,100382.69
2022-08-17T18:32:43.768Z,100381.97
2022-08-17T18:35:18.771Z,100388.88
2022-08-17T18:37:48.904Z,100391.75
2022-08-17T18:40:19.512Z,100386.38
2022-08-17T18:43:07.414Z,100383.97
2022-08-17T18:45:34.024Z,100386.47
2022-08-17T18:48:01.056Z,100391.25
2022-08-17T18:50:35.706Z,100389.53
2022-08-17T18:53:30.403Z,100394.78
2022-08-17T18:56:27.246Z,100398.84
2022-08-17T18:59:16.770Z,100407.56
2022-08-17T19:01:53.333Z,100403.28
2022-08-17T19:04:55.745Z,100402.19
2022-08-17T19:07:22.279Z,100403.03
2022-08-17T19:09:53.916Z,100405.88
2022-08-17T19:12:30.074Z,100402.19
2022-08-17T19:14:57.657Z,100406.34
2022-08-17T19:17:30.828Z,100409.41
2022-08-17T19:20:07.722Z,100410.38
2022-08-17T19:22:47.083Z,100415.31
2022-08-17T19:25:19.219Z,100408.28
2022-08-17T19:27:57.446Z,100409.91
2022-08-17T19:30:25.150Z,100404.88
2022-08-17T19:32:53.060Z,100396.41
2022-08-17T19:35:22.152Z,100399.34
2022-08-17T19:38:01.876Z,100396.75
2022-08-17T19:40:52.717Z,100389.38
2022-08-17T19:43:48.271Z,100401.75
2022-08-17T19:46:26.122Z,100404.53
2022-08-17T19:49:03.359Z,100402.81
2022-08-17T19:51:40.898Z,100400.13
2022-08-17T19:54:20.363Z,100397.53
2022-08-17T19:57:09.796Z,100409.13
2022-08-17T20:00:06.928Z,100399.91
2022-08-17T20:02:38.246Z,100393.19
2022-08-17T20:05:15.489Z,100397.53
2022-08-17T20:07:54.410Z,100399.28
2022-08-17T20:10:54.563Z,100393.91
2022-08-17T20:13:33.023Z,100395.13
2022-08-17T20:16:01.624Z,100400.09
2022-08-17T20:18:34.372Z,100395.03
2022-08-17T20:21:10.568Z,100397.25
2022-08-17T20:23:54.261Z,100397.16
2022-08-17T20:26:36.639Z,100390.28
2022-08-17T20:29:37.194Z,100392.81
2022-08-17T20:32:13.740Z,100403.69
2022-08-17T20:34:40.592Z,100401.00
2022-08-17T20:37:13.525Z,100410.13
2022-08-17T20:39:46.814Z,100404.00
2022-08-17T20:42:19.909Z,100401.88
2022-08-17T20:44:52.720Z,100396.06
2022-08-17T20:47:27.518Z,100391.03
2022-08-17T20:50:04.314Z,100386.31
2022-08-17T20:52:51.216Z,100391.69
2022-08-17T20:55:51.409Z,100391.38
2022-08-17T20:58:30.645Z,100395.97
2022-08-17T21:00:57.814Z,100397.50
2022-08-17T21:03:25.291Z,100395.28
2022-08-17T21:06:00.612Z,100406.34
2022-08-17T21:08:33.665Z,100396.00
2022-08-17T21:11:21.838Z,100394.50
2022-08-17T21:14:46.059Z,100394.50
2022-08-17T21:17:29.616Z,100402.25
2022-08-17T21:20:10.962Z,100398.38
2022-08-17T21:22:57.595Z,100403.31
2022-08-17T21:25:37.185Z,100407.28
2022-08-17T21:28:30.049Z,100405.63
2022-08-17T21:31:09.005Z,100403.34
2022-08-17T21:33:38.523Z,100405.31
2022-08-17T21:36:19.959Z,100410.91
2022-08-17T21:38:57.395Z,100409.81
2022-08-17T21:41:27.365Z,100418.06
2022-08-17T21:44:30.539Z,100420.22
2022-08-17T21:47:13.388Z,100427.69
2022-08-17T21:49:40.083Z,100421.56
2022-08-17T21:52:07.235Z,100417.56
2022-08-17T21:54:36.241Z,100412.31
2022-08-17T21:57:06.486Z,100415.28
2022-08-17T21:59:37.728Z,100409.28
2022-08-17T22:02:06.672Z,100407.66
2022-08-17T22:04:35.188Z,100405.06
2022-08-17T22:07:05.279Z,100403.56
2022-08-17T22:09:43.706Z,100401.94
2022-08-17T22:12:15.122Z,100403.75
2022-08-17T22:14:53.118Z,100406.00
2022-08-17T22:17:29.653Z,100406.97
2022-08-17T22:20:09.651Z,100401.97
2022-08-17T22:22:59.540Z,100403.59
2022-08-17T22:25:27.833Z,100409.28
2022-08-17T22:27:58.411Z,100417.59
2022-08-17T22:30:39.821Z,100420.38
2022-08-17T22:33:29.997Z,100419.69
2022-08-17T22:36:29.073Z,100419.91
2022-08-17T22:39:11.264Z,100405.84
2022-08-17T22:41:48.002Z,100407.56
2022-08-17T22:44:17.713Z,100407.94
2022-08-17T22:46:56.143Z,100411.50
2022-08-17T22:49:26.787Z,100413.03
2022-08-17T22:52:32.043Z,100416.75
2022-08-17T22:55:34.189Z,100421.34
2022-08-17T22:58:20.439Z,100416.00
2022-08-17T23:00:48.918Z,100413.03
2022-08-17T23:03:17.912Z,100411.28
2022-08-17T23:05:48.137Z,100412.16
2022-08-17T23:08:15.488Z,100411.63
2022-08-17T23:10:43.055Z,100416.25
2022-08-17T23:13:11.897Z,100408.22
2022-08-17T23:15:41.678Z,100403.69
2022-08-17T23:18:08.383Z,100404.38
2022-08-17T23:20:37.500Z,100408.78
2022-08-17T23:23:06.815Z,100395.47
2022-08-17T23:25:34.633Z,100391.63
2022-08-17T23:28:03.086Z,100394.56
2022-08-17T23:30:31.636Z,100395.88
2022-08-17T23:33:05.330Z,100396.00
2022-08-17T23:35:39.806Z,100393.81
2022-08-17T23:38:09.700Z,100387.22
2022-08-17T23:40:37.797Z,100386.34
2022-08-17T23:43:11.419Z,100388.25
2022-08-17T23:45:50.520Z,100392.06
2022-08-17T23:48:35.146Z,100384.09
2022-08-17T23:51:29.917Z,100387.84
2022-08-17T23:54:12.625Z,100377.22
2022-08-17T23:56:46.534Z,100377.72
2022-08-17T23:59:20.239Z,100373.31
